sensor_id;sensor_type;location;lat;lon;timestamp;P1;durP1;ratioP1;P2;durP2;ratioP2
4650;SDS011;2338;49.602;8.722;2022-09-12T00:00:30;7.50;;;6.40;;
4650;SDS011;2338;49.602;8.722;2022-09-12T00:03:16;14.00;;;6.47;;
4650;SDS011;2338;49.602;8.722;2022-09-12T00:06:08;10.83;;;5.03;;
4650;SDS011;2338;49.602;8.722;2022-09-12T00:08:57;9.10;;;6.03;;
4650;SDS011;2338;49.602;8.722;2022-09-12T00:11:46;7.30;;;6.23;;
4650;SDS011;2338;49.602;8.722;2022-09-12T00:14:31;14.70;;;6.43;;
4650;SDS011;2338;49.602;8.722;2022-09-12T00:17:17;12.33;;;5.97;;
4650;SDS011;2338;49.602;8.722;2022-09-12T00:20:03;8.63;;;6.03;;
4650;SDS011;2338;49.602;8.722;2022-09-12T00:22:51;7.73;;;6.03;;
4650;SDS011;2338;49.602;8.722;2022-09-12T00:25:40;13.73;;;6.27;;
4650;SDS011;2338;49.602;8.722;2022-09-12T00:28:26;7.13;;;5.60;;
4650;SDS011;2338;49.602;8.722;2022-09-12T00:31:12;10.13;;;5.63;;
4650;SDS011;2338;49.602;8.722;2022-09-12T00:34:00;9.80;;;5.57;;
4650;SDS011;2338;49.602;8.722;2022-09-12T00:36:46;8.73;;;5.90;;
4650;SDS011;2338;49.602;8.722;2022-09-12T00:39:33;8.30;;;6.07;;
4650;SDS011;2338;49.602;8.722;2022-09-12T00:42:18;7.27;;;5.93;;
4650;SDS011;2338;49.602;8.722;2022-09-12T00:45:04;9.80;;;6.17;;
4650;SDS011;2338;49.602;8.722;2022-09-12T00:47:53;11.37;;;6.53;;
4650;SDS011;2338;49.602;8.722;2022-09-12T00:50:39;6.90;;;5.33;;
4650;SDS011;2338;49.602;8.722;2022-09-12T00:53:25;12.53;;;5.60;;
4650;SDS011;2338;49.602;8.722;2022-09-12T00:56:13;13.83;;;5.43;;
4650;SDS011;2338;49.602;8.722;2022-09-12T00:59:03;10.03;;;6.50;;
4650;SDS011;2338;49.602;8.722;2022-09-12T01:01:52;8.40;;;6.03;;
4650;SDS011;2338;49.602;8.722;2022-09-12T01:04:38;17.37;;;6.00;;
4650;SDS011;2338;49.602;8.722;2022-09-12T01:07:25;9.87;;;5.70;;
4650;SDS011;2338;49.602;8.722;2022-09-12T01:10:11;6.13;;;5.40;;
4650;SDS011;2338;49.602;8.722;2022-09-12T01:12:59;12.20;;;6.40;;
4650;SDS011;2338;49.602;8.722;2022-09-12T01:15:45;8.90;;;5.70;;
4650;SDS011;2338;49.602;8.722;2022-09-12T01:18:31;6.43;;;5.33;;
4650;SDS011;2338;49.602;8.722;2022-09-12T01:21:29;9.80;;;5.90;;
4650;SDS011;2338;49.602;8.722;2022-09-12T01:27:49;6.40;;;4.77;;
4650;SDS011;2338;49.602;8.722;2022-09-12T01:30:55;8.10;;;5.63;;
4650;SDS011;2338;49.602;8.722;2022-09-12T01:33:54;10.20;;;5.60;;
4650;SDS011;2338;49.602;8.722;2022-09-12T01:36:47;10.33;;;6.17;;
4650;SDS011;2338;49.602;8.722;2022-09-12T01:39:42;11.30;;;5.07;;
4650;SDS011;2338;49.602;8.722;2022-09-12T01:42:37;7.43;;;5.60;;
4650;SDS011;2338;49.602;8.722;2022-09-12T01:45:29;8.70;;;5.90;;
4650;SDS011;2338;49.602;8.722;2022-09-12T01:48:21;7.10;;;5.37;;
4650;SDS011;2338;49.602;8.722;2022-09-12T01:51:12;9.63;;;5.73;;
4650;SDS011;2338;49.602;8.722;2022-09-12T01:54:04;12.77;;;5.50;;
4650;SDS011;2338;49.602;8.722;2022-09-12T01:56:53;12.23;;;6.20;;
4650;SDS011;2338;49.602;8.722;2022-09-12T01:59:44;7.70;;;4.73;;
4650;SDS011;2338;49.602;8.722;2022-09-12T02:02:32;8.23;;;5.30;;
4650;SDS011;2338;49.602;8.722;2022-09-12T02:05:24;7.40;;;5.83;;
4650;SDS011;2338;49.602;8.722;2022-09-12T02:08:16;10.87;;;4.83;;
4650;SDS011;2338;49.602;8.722;2022-09-12T02:11:07;15.83;;;5.70;;
4650;SDS011;2338;49.602;8.722;2022-09-12T02:13:55;9.30;;;5.80;;
4650;SDS011;2338;49.602;8.722;2022-09-12T02:16:46;9.17;;;5.30;;
4650;SDS011;2338;49.602;8.722;2022-09-12T02:19:38;6.90;;;5.37;;
4650;SDS011;2338;49.602;8.722;2022-09-12T02:22:29;9.40;;;5.60;;
4650;SDS011;2338;49.602;8.722;2022-09-12T02:25:19;7.63;;;5.30;;
4650;SDS011;2338;49.602;8.722;2022-09-12T02:28:08;9.70;;;6.13;;
4650;SDS011;2338;49.602;8.722;2022-09-12T02:30:58;7.20;;;5.47;;
4650;SDS011;2338;49.602;8.722;2022-09-12T02:33:56;5.70;;;5.00;;
4650;SDS011;2338;49.602;8.722;2022-09-12T02:36:55;6.60;;;5.07;;
4650;SDS011;2338;49.602;8.722;2022-09-12T02:39:48;5.97;;;5.37;;
4650;SDS011;2338;49.602;8.722;2022-09-12T02:42:33;9.27;;;4.93;;
4650;SDS011;2338;49.602;8.722;2022-09-12T02:45:19;9.03;;;5.30;;
4650;SDS011;2338;49.602;8.722;2022-09-12T02:48:07;8.97;;;5.80;;
4650;SDS011;2338;49.602;8.722;2022-09-12T02:50:56;8.07;;;5.60;;
4650;SDS011;2338;49.602;8.722;2022-09-12T02:53:42;6.27;;;5.07;;
4650;SDS011;2338;49.602;8.722;2022-09-12T02:56:29;7.33;;;5.30;;
4650;SDS011;2338;49.602;8.722;2022-09-12T02:59:15;11.93;;;5.83;;
4650;SDS011;2338;49.602;8.722;2022-09-12T03:02:09;9.87;;;5.20;;
4650;SDS011;2338;49.602;8.722;2022-09-12T03:08:19;12.40;;;5.63;;
4650;SDS011;2338;49.602;8.722;2022-09-12T03:14:38;8.50;;;6.20;;
4650;SDS011;2338;49.602;8.722;2022-09-12T03:17:36;8.57;;;6.27;;
4650;SDS011;2338;49.602;8.722;2022-09-12T03:20:33;10.50;;;7.33;;
4650;SDS011;2338;49.602;8.722;2022-09-12T03:23:29;42.30;;;8.57;;
4650;SDS011;2338;49.602;8.722;2022-09-12T03:26:19;38.63;;;8.10;;
4650;SDS011;2338;49.602;8.722;2022-09-12T03:29:12;11.00;;;6.83;;
4650;SDS011;2338;49.602;8.722;2022-09-12T03:31:59;14.00;;;8.83;;
4650;SDS011;2338;49.602;8.722;2022-09-12T03:34:45;26.07;;;7.47;;
4650;SDS011;2338;49.602;8.722;2022-09-12T03:37:31;26.67;;;8.00;;
4650;SDS011;2338;49.602;8.722;2022-09-12T03:40:17;7.37;;;6.57;;
4650;SDS011;2338;49.602;8.722;2022-09-12T03:43:03;8.90;;;7.07;;
4650;SDS011;2338;49.602;8.722;2022-09-12T03:45:51;8.87;;;6.50;;
4650;SDS011;2338;49.602;8.722;2022-09-12T03:48:37;7.33;;;6.00;;
4650;SDS011;2338;49.602;8.722;2022-09-12T03:51:22;9.17;;;7.17;;
4650;SDS011;2338;49.602;8.722;2022-09-12T03:54:08;13.20;;;6.23;;
4650;SDS011;2338;49.602;8.722;2022-09-12T03:56:54;9.47;;;6.77;;
4650;SDS011;2338;49.602;8.722;2022-09-12T03:59:40;7.27;;;5.83;;
4650;SDS011;2338;49.602;8.722;2022-09-12T04:02:27;8.00;;;5.90;;
4650;SDS011;2338;49.602;8.722;2022-09-12T04:05:13;13.13;;;6.17;;
4650;SDS011;2338;49.602;8.722;2022-09-12T04:07:59;6.03;;;5.43;;
4650;SDS011;2338;49.602;8.722;2022-09-12T04:10:44;7.43;;;5.30;;
4650;SDS011;2338;49.602;8.722;2022-09-12T04:13:30;6.00;;;5.40;;
4650;SDS011;2338;49.602;8.722;2022-09-12T04:16:15;9.30;;;5.73;;
4650;SDS011;2338;49.602;8.722;2022-09-12T04:19:03;7.00;;;6.03;;
4650;SDS011;2338;49.602;8.722;2022-09-12T04:21:49;6.60;;;5.63;;
4650;SDS011;2338;49.602;8.722;2022-09-12T04:24:35;11.20;;;6.10;;
4650;SDS011;2338;49.602;8.722;2022-09-12T04:27:20;5.53;;;5.00;;
4650;SDS011;2338;49.602;8.722;2022-09-12T04:30:07;17.03;;;6.40;;
4650;SDS011;2338;49.602;8.722;2022-09-12T04:32:53;18.57;;;6.60;;
4650;SDS011;2338;49.602;8.722;2022-09-12T04:35:40;6.43;;;5.60;;
4650;SDS011;2338;49.602;8.722;2022-09-12T04:38:25;10.63;;;6.87;;
4650;SDS011;2338;49.602;8.722;2022-09-12T04:41:11;17.33;;;7.60;;
4650;SDS011;2338;49.602;8.722;2022-09-12T04:43:58;11.87;;;7.37;;
4650;SDS011;2338;49.602;8.722;2022-09-12T04:46:46;150.20;;;10.20;;
4650;SDS011;2338;49.602;8.722;2022-09-12T04:49:31;14.23;;;9.23;;
4650;SDS011;2338;49.602;8.722;2022-09-12T04:52:19;19.27;;;7.70;;
4650;SDS011;2338;49.602;8.722;2022-09-12T04:55:05;12.17;;;8.37;;
4650;SDS011;2338;49.602;8.722;2022-09-12T04:57:51;37.27;;;8.87;;
4650;SDS011;2338;49.602;8.722;2022-09-12T05:00:36;49.03;;;7.43;;
4650;SDS011;2338;49.602;8.722;2022-09-12T05:03:22;13.23;;;6.70;;
4650;SDS011;2338;49.602;8.722;2022-09-12T05:06:08;7.00;;;5.90;;
4650;SDS011;2338;49.602;8.722;2022-09-12T05:08:57;17.50;;;5.90;;
4650;SDS011;2338;49.602;8.722;2022-09-12T05:11:43;6.43;;;5.77;;
4650;SDS011;2338;49.602;8.722;2022-09-12T05:14:29;8.50;;;5.87;;
4650;SDS011;2338;49.602;8.722;2022-09-12T05:17:15;7.60;;;6.80;;
4650;SDS011;2338;49.602;8.722;2022-09-12T05:20:01;6.93;;;5.77;;
4650;SDS011;2338;49.602;8.722;2022-09-12T05:22:47;9.67;;;6.10;;
4650;SDS011;2338;49.602;8.722;2022-09-12T05:25:34;19.80;;;6.87;;
4650;SDS011;2338;49.602;8.722;2022-09-12T05:28:20;10.00;;;6.30;;
4650;SDS011;2338;49.602;8.722;2022-09-12T05:31:07;6.90;;;5.70;;
4650;SDS011;2338;49.602;8.722;2022-09-12T05:33:55;22.83;;;5.40;;
4650;SDS011;2338;49.602;8.722;2022-09-12T05:36:41;7.07;;;6.30;;
4650;SDS011;2338;49.602;8.722;2022-09-12T05:39:27;11.03;;;6.33;;
4650;SDS011;2338;49.602;8.722;2022-09-12T05:42:14;13.30;;;6.33;;
4650;SDS011;2338;49.602;8.722;2022-09-12T05:44:59;8.60;;;6.10;;
4650;SDS011;2338;49.602;8.722;2022-09-12T05:47:45;8.77;;;6.73;;
4650;SDS011;2338;49.602;8.722;2022-09-12T05:50:31;16.17;;;7.40;;
4650;SDS011;2338;49.602;8.722;2022-09-12T05:53:16;8.50;;;7.50;;
4650;SDS011;2338;49.602;8.722;2022-09-12T05:56:06;8.40;;;7.30;;
4650;SDS011;2338;49.602;8.722;2022-09-12T05:58:55;8.70;;;7.33;;
4650;SDS011;2338;49.602;8.722;2022-09-12T06:01:43;7.97;;;6.77;;
4650;SDS011;2338;49.602;8.722;2022-09-12T06:04:29;13.57;;;7.20;;
4650;SDS011;2338;49.602;8.722;2022-09-12T06:07:14;7.90;;;6.03;;
4650;SDS011;2338;49.602;8.722;2022-09-12T06:10:00;7.57;;;6.10;;
4650;SDS011;2338;49.602;8.722;2022-09-12T06:12:46;16.70;;;7.27;;
4650;SDS011;2338;49.602;8.722;2022-09-12T06:15:33;7.40;;;5.90;;
4650;SDS011;2338;49.602;8.722;2022-09-12T06:18:18;5.50;;;4.90;;
4650;SDS011;2338;49.602;8.722;2022-09-12T06:21:05;6.67;;;5.97;;
4650;SDS011;2338;49.602;8.722;2022-09-12T06:23:52;7.47;;;6.13;;
4650;SDS011;2338;49.602;8.722;2022-09-12T06:26:38;12.73;;;6.20;;
4650;SDS011;2338;49.602;8.722;2022-09-12T06:29:24;12.00;;;5.70;;
4650;SDS011;2338;49.602;8.722;2022-09-12T06:32:11;9.00;;;6.67;;
4650;SDS011;2338;49.602;8.722;2022-09-12T06:34:56;6.30;;;5.60;;
4650;SDS011;2338;49.602;8.722;2022-09-12T06:37:42;8.40;;;5.60;;
4650;SDS011;2338;49.602;8.722;2022-09-12T06:40:28;7.67;;;6.67;;
4650;SDS011;2338;49.602;8.722;2022-09-12T06:43:13;10.77;;;5.47;;
4650;SDS011;2338;49.602;8.722;2022-09-12T06:45:59;14.80;;;6.93;;
4650;SDS011;2338;49.602;8.722;2022-09-12T06:48:47;10.10;;;7.53;;
4650;SDS011;2338;49.602;8.722;2022-09-12T06:51:33;8.80;;;6.83;;
4650;SDS011;2338;49.602;8.722;2022-09-12T06:54:19;8.20;;;6.90;;
4650;SDS011;2338;49.602;8.722;2022-09-12T06:57:05;8.87;;;7.13;;
4650;SDS011;2338;49.602;8.722;2022-09-12T06:59:51;15.13;;;7.70;;
4650;SDS011;2338;49.602;8.722;2022-09-12T07:02:37;8.80;;;7.27;;
4650;SDS011;2338;49.602;8.722;2022-09-12T07:05:24;11.57;;;8.00;;
4650;SDS011;2338;49.602;8.722;2022-09-12T07:08:11;8.00;;;7.20;;
4650;SDS011;2338;49.602;8.722;2022-09-12T07:10:56;10.83;;;8.23;;
4650;SDS011;2338;49.602;8.722;2022-09-12T07:13:44;10.93;;;8.43;;
4650;SDS011;2338;49.602;8.722;2022-09-12T07:16:31;10.03;;;8.37;;
4650;SDS011;2338;49.602;8.722;2022-09-12T07:19:18;12.90;;;8.53;;
4650;SDS011;2338;49.602;8.722;2022-09-12T07:22:05;10.90;;;8.27;;
4650;SDS011;2338;49.602;8.722;2022-09-12T07:24:51;10.47;;;8.80;;
4650;SDS011;2338;49.602;8.722;2022-09-12T07:27:38;14.83;;;9.60;;
4650;SDS011;2338;49.602;8.722;2022-09-12T07:30:24;11.70;;;9.67;;
4650;SDS011;2338;49.602;8.722;2022-09-12T07:33:09;15.50;;;9.00;;
4650;SDS011;2338;49.602;8.722;2022-09-12T07:35:59;11.83;;;9.10;;
4650;SDS011;2338;49.602;8.722;2022-09-12T07:38:46;15.60;;;8.37;;
4650;SDS011;2338;49.602;8.722;2022-09-12T07:41:32;12.37;;;7.90;;
4650;SDS011;2338;49.602;8.722;2022-09-12T07:44:18;11.70;;;9.10;;
4650;SDS011;2338;49.602;8.722;2022-09-12T07:47:05;13.90;;;8.10;;
4650;SDS011;2338;49.602;8.722;2022-09-12T07:49:50;12.00;;;9.40;;
4650;SDS011;2338;49.602;8.722;2022-09-12T07:52:36;9.80;;;8.60;;
4650;SDS011;2338;49.602;8.722;2022-09-12T07:55:23;14.40;;;8.60;;
4650;SDS011;2338;49.602;8.722;2022-09-12T07:58:08;15.60;;;9.50;;
4650;SDS011;2338;49.602;8.722;2022-09-12T08:01:00;10.40;;;8.23;;
4650;SDS011;2338;49.602;8.722;2022-09-12T08:03:47;17.97;;;11.80;;
4650;SDS011;2338;49.602;8.722;2022-09-12T08:06:36;10.70;;;9.03;;
4650;SDS011;2338;49.602;8.722;2022-09-12T08:09:22;15.13;;;8.67;;
4650;SDS011;2338;49.602;8.722;2022-09-12T08:12:09;12.77;;;9.07;;
4650;SDS011;2338;49.602;8.722;2022-09-12T08:14:55;13.83;;;9.53;;
4650;SDS011;2338;49.602;8.722;2022-09-12T08:17:40;12.60;;;9.30;;
4650;SDS011;2338;49.602;8.722;2022-09-12T08:20:26;18.40;;;9.60;;
4650;SDS011;2338;49.602;8.722;2022-09-12T08:23:12;9.90;;;8.40;;
4650;SDS011;2338;49.602;8.722;2022-09-12T08:25:58;11.53;;;9.50;;
4650;SDS011;2338;49.602;8.722;2022-09-12T08:28:47;12.87;;;8.47;;
4650;SDS011;2338;49.602;8.722;2022-09-12T08:31:32;11.90;;;8.47;;
4650;SDS011;2338;49.602;8.722;2022-09-12T08:34:19;14.40;;;8.80;;
4650;SDS011;2338;49.602;8.722;2022-09-12T08:37:05;12.13;;;9.10;;
4650;SDS011;2338;49.602;8.722;2022-09-12T08:39:51;12.87;;;9.50;;
4650;SDS011;2338;49.602;8.722;2022-09-12T08:42:40;11.30;;;8.43;;
4650;SDS011;2338;49.602;8.722;2022-09-12T08:45:37;14.57;;;9.10;;
4650;SDS011;2338;49.602;8.722;2022-09-12T08:48:31;11.30;;;8.50;;
4650;SDS011;2338;49.602;8.722;2022-09-12T08:51:17;10.13;;;8.10;;
4650;SDS011;2338;49.602;8.722;2022-09-12T08:54:05;8.40;;;7.30;;
4650;SDS011;2338;49.602;8.722;2022-09-12T08:57:03;16.37;;;8.70;;
4650;SDS011;2338;49.602;8.722;2022-09-12T08:59:49;9.37;;;7.60;;
4650;SDS011;2338;49.602;8.722;2022-09-12T09:02:41;10.20;;;7.77;;
4650;SDS011;2338;49.602;8.722;2022-09-12T09:05:46;10.00;;;7.30;;
4650;SDS011;2338;49.602;8.722;2022-09-12T09:08:41;9.30;;;7.33;;
4650;SDS011;2338;49.602;8.722;2022-09-12T09:11:36;8.70;;;7.20;;
4650;SDS011;2338;49.602;8.722;2022-09-12T09:17:43;7.63;;;6.73;;
4650;SDS011;2338;49.602;8.722;2022-09-12T09:20:33;8.17;;;6.60;;
4650;SDS011;2338;49.602;8.722;2022-09-12T09:23:24;8.53;;;6.33;;
4650;SDS011;2338;49.602;8.722;2022-09-12T09:26:14;7.70;;;6.47;;
4650;SDS011;2338;49.602;8.722;2022-09-12T09:29:10;7.37;;;5.90;;
4650;SDS011;2338;49.602;8.722;2022-09-12T09:32:00;7.17;;;6.03;;
4650;SDS011;2338;49.602;8.722;2022-09-12T09:34:57;6.20;;;5.50;;
4650;SDS011;2338;49.602;8.722;2022-09-12T09:37:43;6.80;;;5.57;;
4650;SDS011;2338;49.602;8.722;2022-09-12T09:40:43;8.03;;;5.57;;
4650;SDS011;2338;49.602;8.722;2022-09-12T09:43:35;6.13;;;5.50;;
4650;SDS011;2338;49.602;8.722;2022-09-12T09:46:22;5.93;;;5.33;;
4650;SDS011;2338;49.602;8.722;2022-09-12T09:49:08;10.03;;;5.50;;
4650;SDS011;2338;49.602;8.722;2022-09-12T09:51:59;6.73;;;6.00;;
4650;SDS011;2338;49.602;8.722;2022-09-12T09:54:47;7.30;;;4.80;;
4650;SDS011;2338;49.602;8.722;2022-09-12T09:57:40;7.37;;;5.27;;
4650;SDS011;2338;49.602;8.722;2022-09-12T10:00:29;6.70;;;5.60;;
4650;SDS011;2338;49.602;8.722;2022-09-12T10:03:27;5.60;;;5.10;;
4650;SDS011;2338;49.602;8.722;2022-09-12T10:06:25;4.63;;;4.13;;
4650;SDS011;2338;49.602;8.722;2022-09-12T10:09:20;6.70;;;5.53;;
4650;SDS011;2338;49.602;8.722;2022-09-12T10:12:18;8.83;;;4.87;;
4650;SDS011;2338;49.602;8.722;2022-09-12T10:15:12;6.63;;;4.77;;
4650;SDS011;2338;49.602;8.722;2022-09-12T10:18:01;5.50;;;4.80;;
4650;SDS011;2338;49.602;8.722;2022-09-12T10:20:47;6.03;;;4.90;;
4650;SDS011;2338;49.602;8.722;2022-09-12T10:23:33;6.10;;;4.20;;
4650;SDS011;2338;49.602;8.722;2022-09-12T10:26:25;6.73;;;5.30;;
4650;SDS011;2338;49.602;8.722;2022-09-12T10:29:15;4.80;;;4.30;;
4650;SDS011;2338;49.602;8.722;2022-09-12T10:32:06;8.43;;;5.20;;
4650;SDS011;2338;49.602;8.722;2022-09-12T10:34:53;5.73;;;4.57;;
4650;SDS011;2338;49.602;8.722;2022-09-12T10:37:49;5.80;;;5.20;;
4650;SDS011;2338;49.602;8.722;2022-09-12T10:40:37;5.50;;;4.90;;
4650;SDS011;2338;49.602;8.722;2022-09-12T10:43:28;7.70;;;5.30;;
4650;SDS011;2338;49.602;8.722;2022-09-12T10:46:28;4.73;;;4.23;;
4650;SDS011;2338;49.602;8.722;2022-09-12T10:49:22;5.80;;;4.37;;
4650;SDS011;2338;49.602;8.722;2022-09-12T10:52:16;6.77;;;5.17;;
4650;SDS011;2338;49.602;8.722;2022-09-12T10:55:07;7.27;;;5.20;;
4650;SDS011;2338;49.602;8.722;2022-09-12T10:58:10;9.17;;;6.53;;
4650;SDS011;2338;49.602;8.722;2022-09-12T11:01:16;7.90;;;5.43;;
4650;SDS011;2338;49.602;8.722;2022-09-12T11:04:23;5.70;;;4.10;;
4650;SDS011;2338;49.602;8.722;2022-09-12T11:07:17;5.10;;;4.50;;
4650;SDS011;2338;49.602;8.722;2022-09-12T11:10:21;6.73;;;3.30;;
4650;SDS011;2338;49.602;8.722;2022-09-12T11:13:16;4.73;;;4.10;;
4650;SDS011;2338;49.602;8.722;2022-09-12T11:16:13;4.70;;;4.13;;
4650;SDS011;2338;49.602;8.722;2022-09-12T11:19:15;5.30;;;4.07;;
4650;SDS011;2338;49.602;8.722;2022-09-12T11:22:17;6.90;;;4.40;;
4650;SDS011;2338;49.602;8.722;2022-09-12T11:25:21;5.20;;;4.07;;
4650;SDS011;2338;49.602;8.722;2022-09-12T11:28:19;5.60;;;4.33;;
4650;SDS011;2338;49.602;8.722;2022-09-12T11:31:23;5.63;;;5.00;;
4650;SDS011;2338;49.602;8.722;2022-09-12T11:34:25;5.40;;;4.07;;
4650;SDS011;2338;49.602;8.722;2022-09-12T11:37:25;5.00;;;3.73;;
4650;SDS011;2338;49.602;8.722;2022-09-12T11:40:26;3.87;;;3.47;;
4650;SDS011;2338;49.602;8.722;2022-09-12T11:43:20;3.87;;;3.47;;
4650;SDS011;2338;49.602;8.722;2022-09-12T11:46:13;5.00;;;3.73;;
4650;SDS011;2338;49.602;8.722;2022-09-12T11:49:09;8.30;;;4.47;;
4650;SDS011;2338;49.602;8.722;2022-09-12T11:52:03;4.57;;;3.97;;
4650;SDS011;2338;49.602;8.722;2022-09-12T11:54:58;4.57;;;3.70;;
4650;SDS011;2338;49.602;8.722;2022-09-12T11:57:47;4.63;;;3.40;;
4650;SDS011;2338;49.602;8.722;2022-09-12T12:00:38;6.07;;;3.50;;
4650;SDS011;2338;49.602;8.722;2022-09-12T12:03:30;4.50;;;3.70;;
4650;SDS011;2338;49.602;8.722;2022-09-12T12:06:21;4.10;;;3.67;;
4650;SDS011;2338;49.602;8.722;2022-09-12T12:09:13;4.50;;;3.70;;
4650;SDS011;2338;49.602;8.722;2022-09-12T12:12:01;5.90;;;3.80;;
4650;SDS011;2338;49.602;8.722;2022-09-12T12:14:52;5.00;;;3.50;;
4650;SDS011;2338;49.602;8.722;2022-09-12T12:17:39;4.63;;;3.87;;
4650;SDS011;2338;49.602;8.722;2022-09-12T12:20:25;4.37;;;3.40;;
4650;SDS011;2338;49.602;8.722;2022-09-12T12:23:22;3.43;;;3.13;;
4650;SDS011;2338;49.602;8.722;2022-09-12T12:26:39;4.57;;;3.60;;
4650;SDS011;2338;49.602;8.722;2022-09-12T12:32:31;5.07;;;3.17;;
4650;SDS011;2338;49.602;8.722;2022-09-12T12:35:36;3.90;;;3.20;;
4650;SDS011;2338;49.602;8.722;2022-09-12T12:38:28;3.90;;;3.33;;
4650;SDS011;2338;49.602;8.722;2022-09-12T12:44:47;5.23;;;3.00;;
4650;SDS011;2338;49.602;8.722;2022-09-12T12:47:38;3.93;;;3.20;;
4650;SDS011;2338;49.602;8.722;2022-09-12T12:50:27;4.90;;;3.10;;
4650;SDS011;2338;49.602;8.722;2022-09-12T12:53:19;4.63;;;3.30;;
4650;SDS011;2338;49.602;8.722;2022-09-12T12:56:20;3.20;;;2.83;;
4650;SDS011;2338;49.602;8.722;2022-09-12T12:59:13;3.07;;;2.57;;
4650;SDS011;2338;49.602;8.722;2022-09-12T13:02:01;3.80;;;3.40;;
4650;SDS011;2338;49.602;8.722;2022-09-12T13:04:48;4.63;;;2.87;;
4650;SDS011;2338;49.602;8.722;2022-09-12T13:07:36;3.00;;;2.20;;
4650;SDS011;2338;49.602;8.722;2022-09-12T13:10:24;3.57;;;2.90;;
4650;SDS011;2338;49.602;8.722;2022-09-12T13:13:19;7.23;;;2.57;;
4650;SDS011;2338;49.602;8.722;2022-09-12T13:16:09;3.47;;;2.40;;
4650;SDS011;2338;49.602;8.722;2022-09-12T13:18:55;3.50;;;2.80;;
4650;SDS011;2338;49.602;8.722;2022-09-12T13:21:53;3.23;;;2.50;;
4650;SDS011;2338;49.602;8.722;2022-09-12T13:24:41;4.57;;;2.50;;
4650;SDS011;2338;49.602;8.722;2022-09-12T13:27:28;2.77;;;2.03;;
4650;SDS011;2338;49.602;8.722;2022-09-12T13:30:15;3.83;;;2.43;;
4650;SDS011;2338;49.602;8.722;2022-09-12T13:33:15;3.00;;;2.50;;
4650;SDS011;2338;49.602;8.722;2022-09-12T13:36:29;3.73;;;2.30;;
4650;SDS011;2338;49.602;8.722;2022-09-12T13:39:44;3.00;;;2.27;;
4650;SDS011;2338;49.602;8.722;2022-09-12T13:42:35;4.90;;;2.33;;
4650;SDS011;2338;49.602;8.722;2022-09-12T13:45:24;3.57;;;1.90;;
4650;SDS011;2338;49.602;8.722;2022-09-12T13:48:12;2.70;;;1.90;;
4650;SDS011;2338;49.602;8.722;2022-09-12T13:51:00;3.73;;;2.20;;
4650;SDS011;2338;49.602;8.722;2022-09-12T13:53:48;5.83;;;2.40;;
4650;SDS011;2338;49.602;8.722;2022-09-12T13:56:44;4.67;;;2.70;;
4650;SDS011;2338;49.602;8.722;2022-09-12T13:59:36;2.83;;;1.87;;
4650;SDS011;2338;49.602;8.722;2022-09-12T14:02:24;3.90;;;2.20;;
4650;SDS011;2338;49.602;8.722;2022-09-12T14:05:12;4.40;;;2.00;;
4650;SDS011;2338;49.602;8.722;2022-09-12T14:08:04;2.90;;;1.87;;
4650;SDS011;2338;49.602;8.722;2022-09-12T14:10:51;2.77;;;1.90;;
4650;SDS011;2338;49.602;8.722;2022-09-12T14:13:37;3.20;;;2.20;;
4650;SDS011;2338;49.602;8.722;2022-09-12T14:16:23;2.37;;;1.73;;
4650;SDS011;2338;49.602;8.722;2022-09-12T14:19:13;3.30;;;2.10;;
4650;SDS011;2338;49.602;8.722;2022-09-12T14:21:59;2.87;;;1.83;;
4650;SDS011;2338;49.602;8.722;2022-09-12T14:24:45;4.63;;;2.33;;
4650;SDS011;2338;49.602;8.722;2022-09-12T14:27:35;2.47;;;1.57;;
4650;SDS011;2338;49.602;8.722;2022-09-12T14:30:29;2.83;;;2.23;;
4650;SDS011;2338;49.602;8.722;2022-09-12T14:33:17;3.93;;;2.10;;
4650;SDS011;2338;49.602;8.722;2022-09-12T14:36:09;2.80;;;2.03;;
4650;SDS011;2338;49.602;8.722;2022-09-12T14:39:00;2.23;;;1.40;;
4650;SDS011;2338;49.602;8.722;2022-09-12T14:41:47;3.40;;;1.90;;
4650;SDS011;2338;49.602;8.722;2022-09-12T14:44:35;3.07;;;2.63;;
4650;SDS011;2338;49.602;8.722;2022-09-12T14:47:21;4.00;;;1.93;;
4650;SDS011;2338;49.602;8.722;2022-09-12T14:50:13;3.23;;;1.90;;
4650;SDS011;2338;49.602;8.722;2022-09-12T14:53:02;3.00;;;1.33;;
4650;SDS011;2338;49.602;8.722;2022-09-12T14:55:50;2.73;;;1.97;;
4650;SDS011;2338;49.602;8.722;2022-09-12T14:58:37;2.50;;;1.60;;
4650;SDS011;2338;49.602;8.722;2022-09-12T15:01:24;5.83;;;1.47;;
4650;SDS011;2338;49.602;8.722;2022-09-12T15:04:10;3.83;;;2.00;;
4650;SDS011;2338;49.602;8.722;2022-09-12T15:07:19;3.23;;;1.90;;
4650;SDS011;2338;49.602;8.722;2022-09-12T15:10:15;4.17;;;1.97;;
4650;SDS011;2338;49.602;8.722;2022-09-12T15:16:06;2.60;;;1.80;;
4650;SDS011;2338;49.602;8.722;2022-09-12T15:18:53;3.90;;;1.90;;
4650;SDS011;2338;49.602;8.722;2022-09-12T15:21:39;7.00;;;2.10;;
4650;SDS011;2338;49.602;8.722;2022-09-12T15:24:24;4.20;;;1.90;;
4650;SDS011;2338;49.602;8.722;2022-09-12T15:27:12;2.97;;;2.00;;
4650;SDS011;2338;49.602;8.722;2022-09-12T15:29:57;3.37;;;2.00;;
4650;SDS011;2338;49.602;8.722;2022-09-12T15:32:43;5.93;;;1.93;;
4650;SDS011;2338;49.602;8.722;2022-09-12T15:35:30;2.97;;;2.10;;
4650;SDS011;2338;49.602;8.722;2022-09-12T15:38:17;5.93;;;2.10;;
4650;SDS011;2338;49.602;8.722;2022-09-12T15:41:07;5.00;;;1.80;;
4650;SDS011;2338;49.602;8.722;2022-09-12T15:43:56;2.63;;;1.53;;
4650;SDS011;2338;49.602;8.722;2022-09-12T15:46:42;2.97;;;2.27;;
4650;SDS011;2338;49.602;8.722;2022-09-12T15:49:28;2.33;;;1.43;;
4650;SDS011;2338;49.602;8.722;2022-09-12T15:52:14;4.27;;;2.60;;
4650;SDS011;2338;49.602;8.722;2022-09-12T15:55:00;6.27;;;2.20;;
4650;SDS011;2338;49.602;8.722;2022-09-12T15:57:46;2.90;;;2.27;;
4650;SDS011;2338;49.602;8.722;2022-09-12T16:00:33;4.83;;;1.77;;
4650;SDS011;2338;49.602;8.722;2022-09-12T16:03:20;2.90;;;1.97;;
4650;SDS011;2338;49.602;8.722;2022-09-12T16:06:07;4.63;;;1.70;;
4650;SDS011;2338;49.602;8.722;2022-09-12T16:08:53;7.10;;;2.03;;
4650;SDS011;2338;49.602;8.722;2022-09-12T16:11:39;9.33;;;1.77;;
4650;SDS011;2338;49.602;8.722;2022-09-12T16:14:25;8.43;;;2.00;;
4650;SDS011;2338;49.602;8.722;2022-09-12T16:17:12;7.93;;;1.70;;
4650;SDS011;2338;49.602;8.722;2022-09-12T16:19:58;5.20;;;1.80;;
4650;SDS011;2338;49.602;8.722;2022-09-12T16:22:44;4.17;;;2.00;;
4650;SDS011;2338;49.602;8.722;2022-09-12T16:25:30;8.23;;;2.13;;
4650;SDS011;2338;49.602;8.722;2022-09-12T16:28:15;5.60;;;1.87;;
4650;SDS011;2338;49.602;8.722;2022-09-12T16:31:02;6.67;;;2.33;;
4650;SDS011;2338;49.602;8.722;2022-09-12T16:33:51;9.90;;;2.03;;
4650;SDS011;2338;49.602;8.722;2022-09-12T16:36:37;4.27;;;1.93;;
4650;SDS011;2338;49.602;8.722;2022-09-12T16:39:22;3.70;;;2.00;;
4650;SDS011;2338;49.602;8.722;2022-09-12T16:42:08;4.90;;;1.97;;
4650;SDS011;2338;49.602;8.722;2022-09-12T16:44:53;4.97;;;2.40;;
4650;SDS011;2338;49.602;8.722;2022-09-12T16:47:39;8.07;;;1.80;;
4650;SDS011;2338;49.602;8.722;2022-09-12T16:50:26;3.23;;;1.83;;
4650;SDS011;2338;49.602;8.722;2022-09-12T16:53:12;6.27;;;2.73;;
4650;SDS011;2338;49.602;8.722;2022-09-12T16:55:58;4.63;;;2.37;;
4650;SDS011;2338;49.602;8.722;2022-09-12T16:58:44;3.13;;;2.10;;
4650;SDS011;2338;49.602;8.722;2022-09-12T17:01:30;5.43;;;2.47;;
4650;SDS011;2338;49.602;8.722;2022-09-12T17:04:17;4.00;;;2.33;;
4650;SDS011;2338;49.602;8.722;2022-09-12T17:07:05;3.87;;;2.30;;
4650;SDS011;2338;49.602;8.722;2022-09-12T17:09:51;5.33;;;2.00;;
4650;SDS011;2338;49.602;8.722;2022-09-12T17:12:36;5.00;;;2.87;;
4650;SDS011;2338;49.602;8.722;2022-09-12T17:15:22;5.47;;;2.60;;
4650;SDS011;2338;49.602;8.722;2022-09-12T17:18:08;3.37;;;2.27;;
4650;SDS011;2338;49.602;8.722;2022-09-12T17:20:53;4.90;;;2.27;;
4650;SDS011;2338;49.602;8.722;2022-09-12T17:23:40;3.03;;;2.17;;
4650;SDS011;2338;49.602;8.722;2022-09-12T17:26:26;4.00;;;2.27;;
4650;SDS011;2338;49.602;8.722;2022-09-12T17:29:12;4.47;;;2.23;;
4650;SDS011;2338;49.602;8.722;2022-09-12T17:31:58;4.43;;;2.67;;
4650;SDS011;2338;49.602;8.722;2022-09-12T17:34:43;4.00;;;2.20;;
4650;SDS011;2338;49.602;8.722;2022-09-12T17:37:29;3.00;;;2.50;;
4650;SDS011;2338;49.602;8.722;2022-09-12T17:40:16;7.67;;;2.60;;
4650;SDS011;2338;49.602;8.722;2022-09-12T17:43:02;3.23;;;2.47;;
4650;SDS011;2338;49.602;8.722;2022-09-12T17:45:50;5.47;;;2.87;;
4650;SDS011;2338;49.602;8.722;2022-09-12T17:48:40;4.47;;;2.80;;
4650;SDS011;2338;49.602;8.722;2022-09-12T17:51:27;2.63;;;2.40;;